Lone Rock, Wisconsin
Current Conditions -  °F | °C
As of 12:56 PM on Friday 31 Oct 2014 (Local Time) from KLNR Reporting Station
Broken Clouds Broken Clouds  
Wind Chill: 35°   Ceiling: 5000
Heat Index: 44°   Visibility: 10mi
Dew Point: 17°   Wind: 23mph
Humidity: 34%   Direction: 20°NNE
Pressure: 30.38"   Gusts: 33mph
Location:  43.18°N, 90.2°W
Report Text: KLNR 311756Z AUTO 02020G29KT 10SM BKN050 07/M08 A3038 RMK AO2 PK WND 36030/1658 SLP287 T00671083 10067 20028 50011
Loading
Personal Weather Stations






























Interactive Weather Map
Tropical Storm Tracking
New forecast layout! Learn more

10-Day Weather Forecast

Advertisements
Track Severe Weather on mobile